Time;durP1;ratioP1;P1;durP2;ratioP2;P2;SDS_P1;SDS_P2;PMS_P1;PMS_P2;Temp;Humidity;BMP_temperature;BMP_pressure;BME280_temperature;BME280_humidity;BME280_pressure;Samples;Min_cycle;Max_cycle;Signal;HPM_P1;HPM_P2
2022/01/15 00:01:45;;;;;;;2.25;2.05;;;5.90;99.90;;;;;;5126399;27;20389;-76
2022/01/15 00:04:11;;;;;;;3.05;1.92;;;5.80;99.90;;;;;;5148877;27;20470;-76
2022/01/15 00:06:38;;;;;;;3.85;2.72;;;5.80;99.90;;;;;;5151990;27;20515;-76
2022/01/15 00:09:04;;;;;;;2.97;2.15;;;5.90;99.90;;;;;;5127266;27;20065;-76
2022/01/15 00:11:31;;;;;;;4.30;2.53;;;5.90;99.90;;;;;;5145490;27;20047;-76
2022/01/15 00:14:10;;;;;;;2.58;2.00;;;5.90;99.90;;;;;;5139289;27;20043;-76
2022/01/15 00:16:46;;;;;;;2.80;1.75;;;5.80;99.90;;;;;;5145190;27;20497;-76
2022/01/15 00:19:14;;;;;;;2.25;1.75;;;5.80;99.90;;;;;;5126466;27;20473;-76
2022/01/15 00:21:40;;;;;;;1.75;1.65;;;5.80;99.90;;;;;;5129446;27;20468;-76
2022/01/15 00:24:07;;;;;;;3.03;1.80;;;5.80;99.90;;;;;;5151233;27;20047;-75
2022/01/15 00:26:33;;;;;;;2.67;2.08;;;5.80;99.90;;;;;;5139476;27;20479;-76
2022/01/15 00:29:00;;;;;;;3.22;1.50;;;5.80;99.90;;;;;;5127643;27;20486;-75
2022/01/15 00:31:26;;;;;;;4.90;2.05;;;5.80;99.90;;;;;;5140845;27;20493;-76
2022/01/15 00:33:53;;;;;;;2.33;1.50;;;5.70;99.90;;;;;;5137383;27;20043;-76
2022/01/15 00:36:20;;;;;;;4.18;2.08;;;5.80;99.90;;;;;;5147244;27;20058;-76
2022/01/15 00:38:47;;;;;;;2.90;1.92;;;5.70;99.90;;;;;;5138593;27;20054;-76
2022/01/15 00:41:16;;;;;;;2.85;2.03;;;5.70;99.90;;;;;;5136890;27;20047;-76
2022/01/15 00:43:42;;;;;;;4.28;2.10;;;5.70;99.90;;;;;;5139212;27;20045;-76
2022/01/15 00:46:09;;;;;;;3.75;2.80;;;5.80;99.90;;;;;;5141474;27;20046;-76
2022/01/15 00:48:36;;;;;;;5.25;3.60;;;5.80;99.90;;;;;;5134959;27;20047;-77
2022/01/15 00:51:02;;;;;;;6.05;2.97;;;6.00;99.90;;;;;;5146497;27;20051;-75
2022/01/15 00:53:29;;;;;;;8.45;3.47;;;5.90;99.90;;;;;;5145966;27;20061;-76
2022/01/15 00:55:55;;;;;;;5.30;3.70;;;6.00;99.90;;;;;;5151930;27;20050;-76
2022/01/15 00:58:22;;;;;;;5.32;3.47;;;6.00;99.90;;;;;;5141601;27;20055;-76
2022/01/15 01:00:48;;;;;;;4.82;2.83;;;6.00;99.90;;;;;;5141381;27;20042;-76
2022/01/15 01:03:15;;;;;;;6.90;2.90;;;5.90;99.90;;;;;;5145166;27;20055;-76
2022/01/15 01:05:41;;;;;;;5.25;2.95;;;5.90;99.90;;;;;;5130059;27;20047;-76
2022/01/15 01:08:08;;;;;;;7.65;3.88;;;5.80;99.90;;;;;;5148368;27;20054;-76
2022/01/15 01:10:50;;;;;;;7.50;3.92;;;5.80;99.90;;;;;;5149705;27;20043;-75
2022/01/15 01:13:40;;;;;;;4.75;2.83;;;5.90;99.90;;;;;;5126397;27;20438;-76
2022/01/15 01:22:20;;;;;;;9.50;4.35;;;5.80;99.90;;;;;;5125669;27;20436;-76
2022/01/15 01:24:34;;;;;;;6.95;3.67;;;5.80;99.90;;;;;;5123536;27;20051;-75
2022/01/15 01:27:04;;;;;;;6.90;4.05;;;5.80;99.90;;;;;;5124048;27;20042;-75
2022/01/15 01:29:42;;;;;;;7.43;3.67;;;5.80;99.90;;;;;;5141452;27;20116;-75
2022/01/15 01:32:14;;;;;;;5.93;4.47;;;5.80;99.90;;;;;;5140611;27;20054;-76
2022/01/15 01:34:43;;;;;;;6.05;3.92;;;5.80;99.90;;;;;;5123554;27;20051;-77
2022/01/15 01:37:15;;;;;;;6.13;4.38;;;5.80;99.90;;;;;;5139404;27;20054;-76
2022/01/15 01:39:45;;;;;;;8.25;5.13;;;5.70;99.90;;;;;;5128330;27;20545;-76
2022/01/15 01:42:31;;;;;;;;;;;5.70;99.90;;;;;;5119206;27;20107;-76
2022/01/15 01:44:58;;;;;;;9.07;6.20;;;5.80;99.90;;;;;;5149677;27;19923;-76
2022/01/15 01:47:35;;;;;;;10.50;5.68;;;5.80;99.90;;;;;;5130596;27;20047;-76
2022/01/15 01:50:02;;;;;;;7.35;5.85;;;5.80;99.90;;;;;;5134851;27;20054;-76
2022/01/15 01:52:28;;;;;;;6.60;5.30;;;5.70;99.90;;;;;;5143467;27;20137;-76
2022/01/15 01:54:55;;;;;;;7.10;5.68;;;5.70;99.90;;;;;;5124611;27;20055;-76
2022/01/15 01:57:21;;;;;;;12.00;4.88;;;5.70;99.90;;;;;;5135461;27;20115;-76
2022/01/15 01:59:48;;;;;;;12.40;6.10;;;5.70;99.90;;;;;;5141969;27;20510;-76
2022/01/15 02:02:14;;;;;;;8.35;5.38;;;5.70;99.90;;;;;;5123469;27;20113;-76
2022/01/15 02:04:41;;;;;;;8.05;4.55;;;5.70;99.90;;;;;;5154770;27;20065;-76
2022/01/15 02:07:08;;;;;;;10.30;6.47;;;5.60;99.90;;;;;;5123165;27;20397;-76
2022/01/15 02:09:34;;;;;;;10.13;6.25;;;5.70;99.90;;;;;;5155111;27;20482;-76
2022/01/15 02:12:01;;;;;;;10.35;5.95;;;5.70;99.90;;;;;;5135290;27;20582;-76
2022/01/15 02:14:27;;;;;;;9.10;5.90;;;5.60;99.90;;;;;;5136860;27;20043;-75
2022/01/15 02:16:54;;;;;;;16.52;6.28;;;5.60;99.90;;;;;;5131158;27;20050;-75
2022/01/15 02:19:20;;;;;;;8.15;6.68;;;5.70;99.90;;;;;;5123057;27;20055;-76
2022/01/15 02:24:31;;;;;;;15.35;6.93;;;5.70;99.90;;;;;;5120648;27;20409;-76
2022/01/15 02:26:57;;;;;;;18.90;4.85;;;5.70;99.90;;;;;;5133578;27;20474;-76
2022/01/15 02:29:24;;;;;;;8.75;3.70;;;5.60;99.90;;;;;;5139277;27;20054;-76
2022/01/15 02:31:50;;;;;;;7.38;3.58;;;5.60;99.90;;;;;;5141485;27;20057;-76
2022/01/15 02:34:17;;;;;;;9.50;4.38;;;5.60;99.90;;;;;;5143806;27;20062;-74
2022/01/15 02:36:43;;;;;;;8.60;2.72;;;5.80;99.90;;;;;;5137447;27;20045;-77
2022/01/15 02:39:10;;;;;;;11.75;4.32;;;5.70;99.90;;;;;;5121220;27;20054;-76
2022/01/15 02:41:36;;;;;;;12.77;3.33;;;5.60;99.90;;;;;;5154559;27;20047;-75
2022/01/15 02:44:03;;;;;;;9.23;4.30;;;5.70;99.90;;;;;;5141477;27;20047;-76
2022/01/15 02:48:00;;;;;;;19.02;6.35;;;5.70;99.90;;;;;;5146353;27;20046;-75
2022/01/15 02:49:22;;;;;;;10.55;4.57;;;5.80;99.90;;;;;;5149030;27;20042;-76
2022/01/15 02:51:49;;;;;;;23.20;6.72;;;5.90;99.90;;;;;;5122283;27;20418;-76
2022/01/15 02:54:16;;;;;;;15.68;5.40;;;5.80;99.90;;;;;;5136400;27;20047;-76
2022/01/15 02:56:42;;;;;;;11.75;5.72;;;5.80;99.90;;;;;;5151010;27;20087;-76
2022/01/15 02:59:09;;;;;;;22.38;4.97;;;5.70;99.90;;;;;;5124679;27;20050;-76
2022/01/15 03:01:35;;;;;;;16.65;4.28;;;5.80;99.90;;;;;;5143694;27;20055;-75
2022/01/15 03:04:02;;;;;;;19.55;6.22;;;5.80;99.90;;;;;;5139046;27;20081;-76
2022/01/15 03:06:28;;;;;;;11.00;5.03;;;5.70;99.90;;;;;;5145819;27;20077;-76
2022/01/15 03:08:55;;;;;;;12.85;4.85;;;5.70;99.90;;;;;;5146997;27;20054;-76
2022/01/15 03:11:21;;;;;;;14.77;5.25;;;5.70;99.90;;;;;;5146226;27;20081;-76
2022/01/15 03:13:48;;;;;;;6.90;5.43;;;5.70;99.90;;;;;;5133410;27;20509;-76
2022/01/15 03:16:14;;;;;;;12.73;6.25;;;5.70;99.90;;;;;;5134730;27;20058;-76
2022/01/15 03:18:41;;;;;;;13.52;6.15;;;5.70;99.90;;;;;;5128312;27;20493;-76
2022/01/15 03:21:07;;;;;;;12.07;6.20;;;5.70;99.90;;;;;;5142192;27;20051;-76
2022/01/15 03:23:34;;;;;;;14.75;6.82;;;5.60;99.90;;;;;;5151033;27;20091;-75
2022/01/15 03:26:00;;;;;;;12.50;6.55;;;5.60;99.90;;;;;;5134990;27;20054;-76
2022/01/15 03:28:27;;;;;;;11.65;6.32;;;5.60;99.90;;;;;;5132278;27;20047;-75
2022/01/15 03:30:53;;;;;;;12.05;6.18;;;5.60;99.90;;;;;;5117991;27;20575;-76
2022/01/15 03:33:20;;;;;;;10.75;5.88;;;5.60;99.90;;;;;;5139801;27;20417;-76
2022/01/15 03:35:46;;;;;;;13.00;7.07;;;5.50;99.90;;;;;;5145680;27;20383;-76
2022/01/15 03:38:13;;;;;;;13.70;6.68;;;5.50;99.90;;;;;;5146600;27;20229;-76
2022/01/15 03:40:40;;;;;;;15.35;5.72;;;5.50;99.90;;;;;;5138673;27;20408;-76
2022/01/15 03:43:06;;;;;;;16.48;7.47;;;5.50;99.90;;;;;;5121346;27;20054;-76
2022/01/15 03:45:33;;;;;;;13.05;7.97;;;5.60;99.90;;;;;;5150067;27;20051;-78
2022/01/15 03:47:59;;;;;;;13.68;6.53;;;5.60;99.90;;;;;;5148071;27;20050;-76
2022/01/15 03:50:26;;;;;;;12.43;7.05;;;5.60;99.90;;;;;;5146791;27;20051;-76
2022/01/15 03:52:52;;;;;;;18.23;8.20;;;5.50;99.90;;;;;;5114647;27;20058;-75
2022/01/15 03:55:19;;;;;;;11.38;7.10;;;5.50;99.90;;;;;;5114370;27;20054;-76
2022/01/15 03:57:45;;;;;;;12.38;7.45;;;5.50;99.90;;;;;;5115229;27;20059;-76
2022/01/15 04:00:12;;;;;;;12.90;7.35;;;5.60;99.90;;;;;;5138202;27;20055;-76
2022/01/15 04:02:38;;;;;;;18.00;7.88;;;5.50;99.90;;;;;;5138929;27;20043;-75
2022/01/15 04:05:05;;;;;;;17.55;7.80;;;5.50;99.90;;;;;;5141082;27;20047;-76
2022/01/15 04:07:31;;;;;;;19.95;7.57;;;5.50;99.90;;;;;;5144503;27;20051;-75
2022/01/15 04:09:58;;;;;;;15.88;7.63;;;5.50;99.90;;;;;;5149472;27;20070;-77
2022/01/15 04:12:24;;;;;;;10.52;5.03;;;5.50;99.90;;;;;;5143115;27;20058;-76
2022/01/15 04:14:51;;;;;;;7.93;4.72;;;5.50;99.90;;;;;;5121923;27;20042;-76
2022/01/15 04:17:17;;;;;;;13.52;4.68;;;5.50;99.90;;;;;;5115089;28;20054;-76
2022/01/15 04:19:44;;;;;;;10.18;4.38;;;5.50;99.90;;;;;;5132772;27;20045;-76
2022/01/15 04:22:11;;;;;;;14.70;6.20;;;5.50;99.90;;;;;;5113764;28;20062;-76
2022/01/15 04:24:37;;;;;;;14.75;6.63;;;5.50;99.90;;;;;;5130123;27;20047;-75
2022/01/15 04:27:04;;;;;;;16.58;6.70;;;5.50;99.90;;;;;;5147396;27;20485;-75
2022/01/15 04:29:31;;;;;;;14.93;6.32;;;5.50;99.90;;;;;;5145202;27;20079;-75
2022/01/15 04:31:57;;;;;;;9.15;6.20;;;5.50;99.90;;;;;;5123268;27;20043;-76
2022/01/15 04:34:25;;;;;;;12.25;6.18;;;5.50;99.90;;;;;;5118354;27;20047;-76
2022/01/15 04:36:52;;;;;;;12.40;6.88;;;5.50;99.90;;;;;;5150739;27;20098;-74
2022/01/15 04:39:18;;;;;;;14.63;6.97;;;5.50;99.90;;;;;;5143191;27;20074;-76
2022/01/15 04:41:45;;;;;;;14.45;6.63;;;5.50;99.90;;;;;;5151101;27;20047;-76
2022/01/15 04:44:11;;;;;;;17.38;8.57;;;5.50;99.90;;;;;;5138820;27;20054;-75
2022/01/15 04:46:38;;;;;;;14.77;6.72;;;5.50;99.90;;;;;;5139562;27;20049;-75
2022/01/15 04:49:05;;;;;;;16.55;7.63;;;5.50;99.90;;;;;;5140927;27;20043;-75
2022/01/15 04:51:31;;;;;;;10.73;7.25;;;5.50;99.90;;;;;;5136815;27;20071;-76
2022/01/15 04:53:58;;;;;;;17.20;7.25;;;5.50;99.90;;;;;;5126484;27;20051;-74
2022/01/15 04:56:24;;;;;;;13.63;8.75;;;5.50;99.90;;;;;;5136976;27;20051;-76
2022/01/15 04:58:51;;;;;;;11.35;7.60;;;5.50;99.90;;;;;;5130144;27;20058;-75
2022/01/15 05:01:17;;;;;;;12.52;7.72;;;5.50;99.90;;;;;;5129237;27;20059;-76
2022/01/15 05:03:44;;;;;;;16.00;8.35;;;5.50;99.90;;;;;;5142717;27;20065;-75
2022/01/15 05:06:10;;;;;;;20.38;8.20;;;5.40;99.90;;;;;;5139641;27;20057;-76
2022/01/15 05:08:37;;;;;;;12.68;6.72;;;5.40;99.90;;;;;;5133161;27;20440;-76
2022/01/15 05:11:12;;;;;;;17.70;7.72;;;5.40;99.90;;;;;;5118404;27;20397;-77
2022/01/15 05:13:39;;;;;;;17.90;7.68;;;5.40;99.90;;;;;;5156149;27;20047;-76
2022/01/15 05:16:06;;;;;;;18.17;9.35;;;5.40;99.90;;;;;;5122389;27;20051;-74
2022/01/15 05:18:32;;;;;;;15.88;7.53;;;5.40;99.90;;;;;;5117654;27;20082;-76
2022/01/15 05:20:59;;;;;;;18.83;7.35;;;5.40;99.90;;;;;;5136825;27;20047;-75
2022/01/15 05:23:25;;;;;;;14.32;6.47;;;5.40;99.90;;;;;;5129876;27;20484;-76
2022/01/15 05:25:52;;;;;;;15.88;6.80;;;5.40;99.90;;;;;;5132617;27;20046;-76
2022/01/15 05:28:18;;;;;;;19.08;6.88;;;5.40;99.90;;;;;;5137685;27;20062;-76
2022/01/15 05:30:45;;;;;;;19.42;6.40;;;5.40;99.90;;;;;;5121184;27;20050;-76
2022/01/15 05:33:11;;;;;;;11.73;6.85;;;5.40;99.90;;;;;;5135041;27;20051;-76
2022/01/15 05:35:38;;;;;;;21.92;7.95;;;5.40;99.90;;;;;;5139409;27;20051;-76
2022/01/15 05:38:04;;;;;;;19.45;8.52;;;5.40;99.90;;;;;;5137343;27;20054;-76
2022/01/15 05:40:31;;;;;;;14.07;7.43;;;5.40;99.90;;;;;;5125969;27;20054;-76
2022/01/15 05:42:57;;;;;;;14.43;7.57;;;5.40;99.90;;;;;;5124898;27;20043;-76
2022/01/15 05:45:25;;;;;;;27.33;7.40;;;5.40;99.90;;;;;;5124849;27;20054;-75
2022/01/15 05:47:52;;;;;;;17.45;8.45;;;5.40;99.90;;;;;;5154877;27;20082;-75
2022/01/15 05:50:19;;;;;;;16.80;7.97;;;5.40;99.90;;;;;;5149067;27;20562;-76
2022/01/15 05:52:45;;;;;;;14.32;7.65;;;5.40;99.90;;;;;;5136346;27;20412;-74
2022/01/15 05:55:12;;;;;;;22.35;8.52;;;5.40;99.90;;;;;;5148488;27;20043;-76
2022/01/15 05:57:38;;;;;;;14.55;8.13;;;5.40;99.90;;;;;;5121097;27;20054;-74
2022/01/15 06:00:05;;;;;;;26.02;9.05;;;5.40;99.90;;;;;;5132158;27;20047;-75
2022/01/15 06:02:31;;;;;;;16.23;8.93;;;5.30;99.90;;;;;;5120096;27;20047;-74
2022/01/15 06:04:58;;;;;;;15.60;8.93;;;5.40;99.90;;;;;;5121346;27;20043;-75
2022/01/15 06:07:24;;;;;;;28.50;9.27;;;5.40;99.90;;;;;;5130045;27;20046;-76
2022/01/15 06:09:51;;;;;;;19.70;8.70;;;5.40;99.90;;;;;;5144138;27;20043;-76
2022/01/15 06:12:18;;;;;;;15.90;8.45;;;5.40;99.90;;;;;;5134195;27;20047;-76
2022/01/15 06:14:45;;;;;;;18.27;8.88;;;5.30;99.90;;;;;;5118103;27;20051;-77
2022/01/15 06:17:11;;;;;;;16.52;8.85;;;5.40;99.90;;;;;;5116365;27;20055;-77
2022/01/15 06:19:38;;;;;;;18.75;8.77;;;5.30;99.90;;;;;;5151325;27;20482;-76
2022/01/15 06:22:04;;;;;;;12.57;7.90;;;5.30;99.90;;;;;;5128687;27;20047;-77
2022/01/15 06:24:31;;;;;;;15.20;6.78;;;5.30;99.90;;;;;;5139735;27;20787;-77
2022/01/15 06:26:57;;;;;;;22.88;9.40;;;5.30;99.90;;;;;;5134454;27;20493;-76
2022/01/15 06:29:24;;;;;;;19.23;8.90;;;5.30;99.90;;;;;;5152666;27;20409;-77
2022/01/15 06:31:52;;;;;;;12.73;9.48;;;5.30;99.90;;;;;;5152495;27;20489;-77
2022/01/15 06:34:19;;;;;;;24.40;9.00;;;5.30;99.90;;;;;;5148885;27;20058;-76
2022/01/15 06:36:45;;;;;;;23.73;7.78;;;5.30;99.90;;;;;;5152237;27;20051;-77
2022/01/15 06:39:12;;;;;;;15.05;7.75;;;5.30;99.90;;;;;;5134209;27;20058;-77
2022/01/15 06:41:38;;;;;;;12.93;7.65;;;5.30;99.90;;;;;;5151545;27;20047;-77
2022/01/15 06:44:05;;;;;;;10.65;6.30;;;5.30;99.90;;;;;;5151085;27;20054;-77
2022/01/15 06:46:31;;;;;;;14.95;6.53;;;5.30;99.90;;;;;;5150249;27;20039;-76
2022/01/15 06:48:58;;;;;;;12.90;5.95;;;5.30;99.90;;;;;;5131613;27;20051;-77
2022/01/15 06:51:25;;;;;;;21.67;6.38;;;5.30;99.90;;;;;;5151589;27;20061;-77
2022/01/15 06:53:51;;;;;;;7.38;4.45;;;5.30;99.90;;;;;;5133593;27;20116;-76
2022/01/15 06:56:18;;;;;;;10.43;4.47;;;5.30;99.90;;;;;;5150406;27;20042;-77
2022/01/15 06:58:46;;;;;;;10.68;4.68;;;5.30;99.90;;;;;;5133737;27;20046;-77
2022/01/15 07:01:12;;;;;;;8.30;4.32;;;5.30;99.90;;;;;;5132395;27;20118;-77
2022/01/15 07:03:39;;;;;;;10.57;5.57;;;5.30;99.90;;;;;;5151872;27;20042;-77
2022/01/15 07:06:05;;;;;;;18.05;5.15;;;5.20;99.90;;;;;;5152377;27;20051;-76
2022/01/15 07:08:32;;;;;;;13.38;4.72;;;5.30;99.90;;;;;;5151659;27;20047;-77
2022/01/15 07:10:58;;;;;;;12.13;5.82;;;5.20;99.90;;;;;;5150475;27;20145;-77
2022/01/15 07:13:26;;;;;;;7.30;5.00;;;5.30;99.90;;;;;;5151648;27;20047;-76
2022/01/15 07:15:53;;;;;;;7.30;4.32;;;5.30;99.90;;;;;;5149189;27;20072;-75
2022/01/15 07:18:19;;;;;;;7.13;3.90;;;5.30;99.90;;;;;;5150800;27;20043;-77
2022/01/15 07:20:46;;;;;;;5.47;3.88;;;5.20;99.90;;;;;;5152734;27;20047;-76
2022/01/15 07:23:12;;;;;;;5.22;3.65;;;5.30;99.90;;;;;;5150399;27;20077;-77
2022/01/15 07:25:39;;;;;;;14.57;4.50;;;5.30;99.90;;;;;;5150476;27;20039;-77
2022/01/15 07:28:06;;;;;;;10.68;3.20;;;5.30;99.90;;;;;;5151454;27;20061;-76
2022/01/15 07:30:32;;;;;;;8.75;3.85;;;5.30;99.90;;;;;;5148999;27;20043;-77
2022/01/15 07:32:59;;;;;;;9.55;4.20;;;5.20;99.90;;;;;;5131622;27;20047;-77
2022/01/15 07:35:25;;;;;;;9.13;3.50;;;5.20;99.90;;;;;;5150108;27;20053;-77
2022/01/15 07:37:52;;;;;;;16.40;4.35;;;5.20;99.90;;;;;;5149764;27;20039;-77
2022/01/15 07:40:18;;;;;;;11.15;4.40;;;5.20;99.90;;;;;;5129207;27;20070;-77
2022/01/15 07:42:45;;;;;;;9.95;4.10;;;5.20;99.90;;;;;;5132448;27;20488;-77
2022/01/15 07:45:11;;;;;;;16.73;4.68;;;5.20;99.90;;;;;;5133474;27;20054;-76
2022/01/15 07:47:38;;;;;;;8.82;4.15;;;5.20;99.90;;;;;;5129553;27;20055;-77
2022/01/15 07:50:04;;;;;;;13.45;4.10;;;5.20;99.90;;;;;;5147268;27;20047;-77
2022/01/15 07:52:31;;;;;;;11.32;4.85;;;5.20;99.90;;;;;;5130815;27;20118;-77
2022/01/15 07:55:00;;;;;;;9.88;4.55;;;5.20;99.90;;;;;;5150790;27;20043;-77
2022/01/15 07:57:26;;;;;;;9.05;4.00;;;5.20;99.90;;;;;;5147658;27;20058;-77
2022/01/15 07:59:53;;;;;;;12.43;5.55;;;5.20;99.90;;;;;;5149564;27;20061;-78
2022/01/15 08:02:19;;;;;;;7.18;3.95;;;5.20;99.90;;;;;;5149970;27;20043;-78
2022/01/15 08:04:46;;;;;;;9.38;4.32;;;5.20;99.90;;;;;;5128559;27;20043;-77
2022/01/15 08:07:12;;;;;;;8.02;4.35;;;5.20;99.90;;;;;;5151807;27;20042;-77
2022/01/15 08:09:39;;;;;;;13.15;4.63;;;5.20;99.90;;;;;;5149438;27;20065;-77
2022/01/15 08:12:06;;;;;;;9.05;5.05;;;5.20;99.90;;;;;;5150423;27;20042;-77
2022/01/15 08:14:32;;;;;;;17.88;4.15;;;5.20;99.90;;;;;;5131148;27;20500;-76
2022/01/15 08:16:59;;;;;;;16.05;4.55;;;5.20;99.90;;;;;;5150898;27;20051;-77
2022/01/15 08:19:25;;;;;;;8.43;4.40;;;5.20;99.90;;;;;;5149610;27;20039;-77
2022/01/15 08:21:52;;;;;;;14.65;4.55;;;5.20;99.90;;;;;;5149945;27;20504;-77
2022/01/15 08:24:18;;;;;;;6.32;3.42;;;5.20;99.90;;;;;;5131051;27;20491;-77
2022/01/15 08:26:45;;;;;;;4.55;3.40;;;5.20;99.90;;;;;;5150784;27;20485;-77
2022/01/15 08:29:11;;;;;;;6.60;3.53;;;5.30;99.90;;;;;;5133358;27;20138;-77
2022/01/15 08:31:38;;;;;;;5.82;3.55;;;5.30;99.90;;;;;;5150613;27;20039;-77
2022/01/15 08:34:04;;;;;;;7.80;3.83;;;5.20;99.90;;;;;;5150587;27;20505;-77
2022/01/15 08:36:32;;;;;;;6.70;2.95;;;5.30;99.90;;;;;;5131550;27;20050;-77
2022/01/15 08:38:58;;;;;;;10.05;3.30;;;5.30;99.90;;;;;;5131543;27;20450;-77
2022/01/15 08:41:25;;;;;;;7.85;3.10;;;5.30;99.90;;;;;;5150046;27;20058;-78
2022/01/15 08:43:51;;;;;;;4.20;2.50;;;5.30;99.90;;;;;;5130970;27;20047;-77
2022/01/15 08:46:19;;;;;;;2.70;2.08;;;5.30;99.90;;;;;;5151395;27;20070;-77
2022/01/15 08:48:46;;;;;;;1.88;1.05;;;5.30;99.90;;;;;;5128778;27;20051;-77
2022/01/15 08:51:12;;;;;;;3.35;1.30;;;5.30;99.90;;;;;;5130326;27;20049;-75
2022/01/15 08:53:39;;;;;;;1.88;1.10;;;5.30;99.90;;;;;;5147350;27;20042;-77
2022/01/15 08:56:05;;;;;;;2.28;1.15;;;5.30;99.90;;;;;;5132332;27;20054;-77
2022/01/15 08:58:32;;;;;;;1.98;1.00;;;5.40;99.90;;;;;;5131899;27;20482;-77
2022/01/15 09:00:59;;;;;;;1.85;1.25;;;5.30;99.90;;;;;;5149596;27;20050;-76
2022/01/15 09:03:25;;;;;;;1.40;1.02;;;5.40;99.90;;;;;;5149182;27;20043;-78
2022/01/15 09:05:52;;;;;;;3.08;1.35;;;5.40;99.90;;;;;;5132535;27;20070;-77
2022/01/15 09:08:20;;;;;;;2.30;1.40;;;5.40;99.90;;;;;;5150784;27;20043;-77
2022/01/15 09:10:47;;;;;;;2.70;1.60;;;5.40;99.90;;;;;;5149437;27;20443;-77
2022/01/15 09:13:13;;;;;;;2.50;1.98;;;5.40;99.90;;;;;;5149031;27;20043;-77
2022/01/15 09:15:40;;;;;;;4.18;1.83;;;5.40;99.90;;;;;;5148589;27;20045;-77
2022/01/15 09:18:06;;;;;;;4.22;2.17;;;5.40;99.90;;;;;;5133353;27;20461;-77
2022/01/15 09:20:33;;;;;;;2.47;1.63;;;5.50;99.90;;;;;;5152274;27;20042;-77
2022/01/15 09:23:00;;;;;;;7.22;1.27;;;5.50;99.90;;;;;;5132137;27;20047;-76
2022/01/15 09:25:27;;;;;;;6.50;2.55;;;5.50;99.90;;;;;;5134550;27;20042;-78
2022/01/15 09:30:38;;;;;;;4.28;2.63;;;5.50;99.90;;;;;;5150215;27;20087;-77
2022/01/15 09:33:05;;;;;;;2.58;2.10;;;5.50;99.90;;;;;;5145472;27;20055;-77
2022/01/15 09:35:31;;;;;;;3.38;2.45;;;5.50;99.90;;;;;;5129273;27;20058;-77
2022/01/15 09:37:58;;;;;;;4.28;2.90;;;5.50;99.90;;;;;;5128263;27;20419;-77
2022/01/15 09:40:25;;;;;;;4.55;2.45;;;5.60;99.90;;;;;;5147352;27;20103;-76
2022/01/15 09:42:52;;;;;;;5.85;2.72;;;5.60;99.90;;;;;;5150187;27;20078;-77
2022/01/15 09:45:19;;;;;;;3.20;2.35;;;5.60;99.90;;;;;;5143836;27;20043;-77
2022/01/15 09:47:45;;;;;;;6.03;2.85;;;5.60;99.90;;;;;;5118529;27;20058;-77
2022/01/15 09:50:12;;;;;;;7.10;3.10;;;5.60;99.90;;;;;;5141080;27;20051;-77
2022/01/15 09:52:38;;;;;;;7.78;4.25;;;5.60;99.90;;;;;;5128461;27;20057;-77
2022/01/15 09:55:05;;;;;;;4.93;4.45;;;5.60;99.90;;;;;;5147762;27;20051;-77
2022/01/15 09:57:31;;;;;;;6.53;4.60;;;5.60;99.90;;;;;;5128221;27;20046;-78
2022/01/15 09:59:58;;;;;;;7.10;5.10;;;5.60;99.90;;;;;;5147371;27;20054;-78
2022/01/15 10:02:24;;;;;;;9.52;5.53;;;5.60;99.90;;;;;;5149495;27;20049;-77
2022/01/15 10:04:51;;;;;;;10.38;6.40;;;5.70;99.90;;;;;;5127298;27;20502;-77
2022/01/15 10:07:17;;;;;;;10.90;6.97;;;5.70;99.90;;;;;;5131830;27;20492;-77
2022/01/15 10:09:45;;;;;;;8.82;6.13;;;5.70;99.90;;;;;;5131470;27;20065;-77
2022/01/15 10:12:12;;;;;;;11.43;6.38;;;5.70;99.90;;;;;;5130366;27;20046;-76
2022/01/15 10:14:39;;;;;;;9.52;5.97;;;5.70;99.90;;;;;;5126867;27;20039;-77
2022/01/15 10:17:05;;;;;;;12.43;8.00;;;5.70;99.90;;;;;;5130166;27;20115;-77
2022/01/15 10:19:32;;;;;;;11.23;7.75;;;5.70;99.90;;;;;;5132163;27;20112;-78
2022/01/15 10:21:58;;;;;;;14.20;8.65;;;5.70;99.90;;;;;;5126115;27;20058;-78
2022/01/15 10:24:25;;;;;;;12.45;7.82;;;5.70;99.90;;;;;;5136684;27;20069;-77
2022/01/15 10:26:51;;;;;;;11.93;6.95;;;5.70;99.90;;;;;;5144875;27;20047;-77
2022/01/15 10:29:18;;;;;;;12.43;8.82;;;5.80;99.90;;;;;;5124232;27;20049;-77
2022/01/15 10:31:44;;;;;;;12.70;7.97;;;5.70;99.90;;;;;;5135240;27;20062;-77
2022/01/15 10:34:11;;;;;;;13.85;7.20;;;5.80;99.90;;;;;;5148338;27;20054;-76
2022/01/15 10:36:38;;;;;;;11.20;7.43;;;5.80;99.90;;;;;;5121464;27;20055;-77
2022/01/15 10:39:04;;;;;;;13.18;7.80;;;5.80;99.90;;;;;;5147434;27;20058;-77
2022/01/15 10:41:31;;;;;;;11.88;6.95;;;5.80;99.90;;;;;;5144811;27;20062;-77
2022/01/15 10:43:57;;;;;;;6.95;5.57;;;5.80;99.90;;;;;;5138037;27;20051;-77
2022/01/15 10:46:24;;;;;;;6.10;4.40;;;5.90;99.90;;;;;;5118825;27;20043;-77
2022/01/15 10:48:50;;;;;;;5.82;4.00;;;5.90;99.90;;;;;;5136032;27;20045;-77
2022/01/15 10:51:17;;;;;;;9.05;5.45;;;5.90;99.90;;;;;;5122293;27;20055;-77
2022/01/15 10:53:44;;;;;;;6.22;4.00;;;5.90;99.90;;;;;;5129110;27;20050;-77
2022/01/15 10:56:10;;;;;;;8.00;3.83;;;5.90;99.90;;;;;;5148788;27;20055;-78
2022/01/15 10:58:37;;;;;;;7.68;4.15;;;5.80;99.90;;;;;;5141293;27;20050;-77
2022/01/15 11:01:03;;;;;;;6.53;3.67;;;5.90;99.90;;;;;;5122360;27;20047;-77
2022/01/15 11:03:30;;;;;;;5.45;4.22;;;5.80;99.90;;;;;;5128060;27;20043;-77
2022/01/15 11:05:56;;;;;;;9.10;3.95;;;5.80;99.90;;;;;;5136716;27;20050;-77
2022/01/15 11:08:23;;;;;;;10.80;4.20;;;5.80;99.90;;;;;;5130401;27;20050;-78
2022/01/15 11:10:50;;;;;;;4.55;3.60;;;5.80;99.90;;;;;;5127792;27;20070;-78
2022/01/15 11:13:16;;;;;;;4.68;3.60;;;5.80;99.90;;;;;;5130334;27;20085;-78
2022/01/15 11:15:43;;;;;;;5.82;3.83;;;5.80;99.90;;;;;;5128991;27;20402;-77
2022/01/15 11:18:09;;;;;;;4.13;3.65;;;5.80;99.90;;;;;;5125720;27;20050;-76
2022/01/15 11:20:36;;;;;;;8.20;5.85;;;5.80;99.90;;;;;;5134592;27;20063;-77
2022/01/15 11:23:03;;;;;;;10.18;8.07;;;5.80;99.90;;;;;;5151930;27;20042;-77
2022/01/15 11:25:29;;;;;;;11.40;9.40;;;5.70;99.90;;;;;;5149612;27;20122;-77
2022/01/15 11:27:56;;;;;;;15.35;10.90;;;5.80;99.90;;;;;;5131627;27;20046;-77
2022/01/15 11:30:22;;;;;;;13.45;10.75;;;5.80;99.90;;;;;;5134498;27;20043;-77
2022/01/15 11:32:49;;;;;;;20.13;13.55;;;5.70;99.90;;;;;;5144619;27;20055;-76
2022/01/15 11:35:15;;;;;;;19.00;14.00;;;5.70;99.90;;;;;;5150342;27;20054;-77
2022/01/15 11:37:42;;;;;;;18.77;14.38;;;5.70;99.90;;;;;;5149520;27;20050;-77
2022/01/15 11:40:09;;;;;;;21.85;15.15;;;5.70;99.90;;;;;;5153047;27;20062;-76
2022/01/15 11:42:35;;;;;;;18.58;14.63;;;5.70;99.90;;;;;;5152277;27;20042;-77
2022/01/15 11:45:02;;;;;;;23.27;16.23;;;5.70;99.90;;;;;;5151432;27;20397;-77
2022/01/15 11:47:29;;;;;;;24.15;17.65;;;5.70;99.90;;;;;;5131331;27;20405;-77
2022/01/15 11:49:58;;;;;;;21.58;16.20;;;5.70;99.90;;;;;;5147813;27;20424;-77
2022/01/15 11:52:26;;;;;;;22.83;16.58;;;5.60;99.90;;;;;;5148483;27;20058;-77
2022/01/15 11:54:52;;;;;;;27.00;17.88;;;5.70;99.90;;;;;;5146456;27;20069;-77
2022/01/15 11:57:19;;;;;;;25.80;19.65;;;5.70;99.90;;;;;;5149880;27;20043;-78
2022/01/15 11:59:45;;;;;;;25.42;18.08;;;5.70;99.90;;;;;;5152093;27;20053;-77
2022/01/15 12:02:12;;;;;;;33.17;20.80;;;5.80;99.90;;;;;;5150759;27;20047;-77
2022/01/15 12:04:38;;;;;;;31.00;22.02;;;5.80;99.90;;;;;;5123348;27;20035;-77
2022/01/15 12:07:05;;;;;;;29.25;21.50;;;5.70;99.90;;;;;;5150798;27;20053;-77
2022/01/15 12:09:32;;;;;;;32.83;22.15;;;5.70;99.90;;;;;;5133171;27;20051;-76
2022/01/15 12:11:58;;;;;;;39.00;25.30;;;5.70;99.90;;;;;;5117795;27;20129;-77
2022/01/15 12:14:25;;;;;;;31.38;22.20;;;5.70;99.90;;;;;;5147906;27;20091;-77
2022/01/15 12:16:51;;;;;;;31.75;21.67;;;5.70;99.90;;;;;;5129521;27;20054;-77
2022/01/15 12:19:18;;;;;;;26.52;20.45;;;5.70;99.90;;;;;;5133707;27;20054;-77
2022/01/15 12:21:44;;;;;;;31.67;22.63;;;5.60;99.90;;;;;;5151922;27;20042;-78
2022/01/15 12:24:11;;;;;;;41.20;25.83;;;5.70;99.90;;;;;;5133559;27;20049;-77
2022/01/15 12:26:37;;;;;;;36.97;25.08;;;5.70;99.90;;;;;;5149750;27;20035;-77
2022/01/15 12:29:04;;;;;;;39.33;27.30;;;5.70;99.90;;;;;;5132955;27;20057;-77
2022/01/15 12:31:30;;;;;;;38.42;24.58;;;5.60;99.90;;;;;;5132036;27;20038;-77
2022/01/15 12:33:57;;;;;;;29.52;20.00;;;5.60;99.90;;;;;;5123830;28;20063;-78
2022/01/15 12:36:24;;;;;;;28.90;19.33;;;5.70;99.90;;;;;;5140142;27;20440;-77
2022/01/15 12:38:50;;;;;;;28.50;17.65;;;5.70;99.90;;;;;;5147656;27;20058;-77
2022/01/15 12:41:18;;;;;;;24.55;15.85;;;5.60;99.90;;;;;;5139564;27;20573;-77
2022/01/15 12:43:44;;;;;;;25.13;15.90;;;5.70;99.90;;;;;;5115049;27;20154;-77
2022/01/15 12:46:11;;;;;;;22.48;14.77;;;5.50;99.90;;;;;;5141431;27;20057;-77
2022/01/15 12:48:39;;;;;;;21.25;14.73;;;5.50;99.90;;;;;;5129242;27;20059;-77
2022/01/15 12:51:05;;;;;;;18.88;13.13;;;5.40;99.90;;;;;;5136810;27;20319;-77
2022/01/15 12:53:32;;;;;;;20.60;13.73;;;5.40;99.90;;;;;;5124235;27;20097;-77
2022/01/15 12:55:59;;;;;;;20.33;13.98;;;5.40;99.90;;;;;;5131254;27;20591;-78
2022/01/15 12:58:25;;;;;;;20.73;13.57;;;5.30;99.90;;;;;;5145081;27;20470;-77
2022/01/15 13:00:52;;;;;;;22.20;14.18;;;5.40;99.90;;;;;;5131703;27;20046;-77